createdAt,value
2017-09-18T00:00:50.470Z,78.50
2017-09-18T00:01:51.083Z,78.41
2017-09-18T00:02:51.686Z,78.31
2017-09-18T00:03:52.294Z,78.12
2017-09-18T00:04:53.000Z,78.41
2017-09-18T00:05:53.639Z,78.69
2017-09-18T00:06:54.247Z,78.59
2017-09-18T00:07:54.857Z,78.59
2017-09-18T00:08:55.463Z,78.69
2017-09-18T00:09:56.171Z,78.69
2017-09-18T00:10:56.777Z,78.22
2017-09-18T00:11:57.389Z,78.69
2017-09-18T00:12:57.999Z,78.59
2017-09-18T00:13:58.606Z,78.41
2017-09-18T00:14:59.313Z,78.59
2017-09-18T00:15:59.920Z,78.50
2017-09-18T00:17:00.528Z,78.69
2017-09-18T00:18:01.138Z,78.37
2017-09-18T00:19:01.778Z,78.46
2017-09-18T00:20:02.490Z,78.31
2017-09-18T00:21:03.096Z,78.69
2017-09-18T00:22:03.704Z,78.56
2017-09-18T00:23:04.315Z,78.56
2017-09-18T00:24:04.926Z,78.41
2017-09-18T00:25:05.632Z,78.59
2017-09-18T00:26:06.238Z,78.50
2017-09-18T00:27:06.845Z,78.56
2017-09-18T00:28:07.451Z,78.56
2017-09-18T00:29:08.057Z,79.03
2017-09-18T00:30:08.796Z,78.98
2017-09-18T00:31:09.410Z,78.88
2017-09-18T00:32:10.055Z,78.75
2017-09-18T00:33:10.659Z,79.03
2017-09-18T00:34:11.266Z,78.85
2017-09-18T00:35:11.974Z,79.22
2017-09-18T00:36:12.588Z,79.41
2017-09-18T00:37:13.192Z,79.41
2017-09-18T00:38:13.804Z,79.50
2017-09-18T00:39:14.410Z,78.85
2017-09-18T00:40:15.115Z,79.17
2017-09-18T00:41:15.725Z,79.41
2017-09-18T00:42:16.337Z,79.50
2017-09-18T00:43:16.943Z,79.32
2017-09-18T00:44:17.555Z,78.94
2017-09-18T00:45:18.258Z,79.22
2017-09-18T00:46:18.867Z,79.41
2017-09-18T00:47:19.473Z,79.13
2017-09-18T00:48:20.090Z,79.03
2017-09-18T00:49:20.689Z,79.32
2017-09-18T00:50:21.403Z,79.13
2017-09-18T00:51:22.009Z,79.41
2017-09-18T00:52:22.619Z,79.69
2017-09-18T00:53:23.223Z,79.60
2017-09-18T00:54:23.861Z,79.41
2017-09-18T00:55:24.606Z,79.69
2017-09-18T00:56:25.211Z,79.22
2017-09-18T00:57:25.818Z,79.41
2017-09-18T00:58:26.423Z,79.69
2017-09-18T00:59:27.033Z,79.60
2017-09-18T01:00:27.740Z,79.98
2017-09-18T01:01:28.347Z,79.98
2017-09-18T01:02:28.955Z,79.69
2017-09-18T01:03:29.560Z,79.79
2017-09-18T01:04:30.170Z,80.26
2017-09-18T01:05:30.877Z,80.64
2017-09-18T01:06:31.516Z,80.26
2017-09-18T01:07:32.129Z,80.17
2017-09-18T01:08:32.766Z,80.64
2017-09-18T01:09:33.379Z,80.26
2017-09-18T01:10:34.081Z,80.55
2017-09-18T01:11:34.721Z,80.07
2017-09-18T01:12:35.327Z,80.26
2017-09-18T01:13:35.941Z,80.55
2017-09-18T01:14:36.551Z,80.26
2017-09-18T01:15:37.260Z,80.74
2017-09-18T01:16:37.866Z,80.55
2017-09-18T01:17:38.510Z,80.26
2017-09-18T01:18:39.127Z,80.55
2017-09-18T01:19:39.763Z,80.36
2017-09-18T01:20:40.470Z,80.07
2017-09-18T01:21:41.077Z,80.36
2017-09-18T01:22:41.690Z,80.17
2017-09-18T01:23:42.297Z,80.26
2017-09-18T01:24:42.905Z,80.64
2017-09-18T01:25:43.612Z,80.26
2017-09-18T01:26:44.217Z,80.55
2017-09-18T01:27:44.823Z,80.55
2017-09-18T01:28:45.436Z,80.36
2017-09-18T01:29:46.041Z,80.74
2017-09-18T01:30:46.746Z,80.26
2017-09-18T01:31:47.358Z,79.98
2017-09-18T01:32:47.967Z,80.55
2017-09-18T01:33:48.566Z,80.26
2017-09-18T01:34:49.175Z,80.26
2017-09-18T01:35:49.882Z,80.45
2017-09-18T01:36:50.524Z,80.36
2017-09-18T01:37:51.163Z,80.26
2017-09-18T01:38:51.768Z,80.55
2017-09-18T01:39:52.375Z,80.55
2017-09-18T01:40:53.132Z,80.17
2017-09-18T01:41:53.738Z,80.07
2017-09-18T01:42:54.345Z,80.45
2017-09-18T01:43:54.951Z,80.17
2017-09-18T01:44:55.590Z,80.26
2017-09-18T01:45:56.300Z,80.26
2017-09-18T01:46:56.904Z,80.17
2017-09-18T01:47:57.516Z,80.36
2017-09-18T01:48:58.124Z,80.36
2017-09-18T01:49:58.732Z,80.17
2017-09-18T01:50:59.466Z,80.36
2017-09-18T01:52:00.075Z,80.64
2017-09-18T01:53:00.682Z,80.26
2017-09-18T01:54:01.288Z,80.55
2017-09-18T01:55:01.895Z,80.55
2017-09-18T01:56:02.609Z,80.26
2017-09-18T01:57:03.213Z,79.69
2017-09-18T01:58:03.820Z,80.07
2017-09-18T01:59:04.424Z,80.36
2017-09-18T02:00:05.062Z,80.36
2017-09-18T02:01:05.774Z,80.26
2017-09-18T02:02:06.379Z,80.07
2017-09-18T02:03:06.987Z,79.98
2017-09-18T02:04:07.592Z,80.07
2017-09-18T02:05:08.201Z,80.26
2017-09-18T02:06:08.907Z,79.98
2017-09-18T02:07:09.516Z,80.36
2017-09-18T02:08:10.129Z,80.17
2017-09-18T02:09:10.733Z,80.45
2017-09-18T02:10:11.340Z,80.55
2017-09-18T02:11:12.047Z,80.17
2017-09-18T02:12:12.659Z,80.07
2017-09-18T02:13:13.262Z,80.26
2017-09-18T02:14:13.866Z,80.26
2017-09-18T02:15:14.480Z,80.17
2017-09-18T02:16:15.184Z,80.55
2017-09-18T02:17:15.793Z,80.26
2017-09-18T02:18:16.398Z,79.98
2017-09-18T02:19:17.005Z,80.07
2017-09-18T02:20:17.612Z,80.17
2017-09-18T02:21:18.319Z,79.88
2017-09-18T02:22:18.928Z,79.98
2017-09-18T02:23:19.535Z,80.36
2017-09-18T02:24:20.142Z,80.17
2017-09-18T02:25:20.747Z,80.55
2017-09-18T02:26:21.487Z,80.64
2017-09-18T02:27:22.094Z,80.26
2017-09-18T02:28:22.700Z,80.17
2017-09-18T02:29:23.308Z,80.64
2017-09-18T02:30:23.920Z,80.36
2017-09-18T02:31:24.530Z,80.55
2017-09-18T02:32:25.138Z,80.45
2017-09-18T02:33:25.741Z,80.64
2017-09-18T02:34:26.447Z,80.45
2017-09-18T02:35:27.089Z,80.36
2017-09-18T02:36:27.693Z,80.17
2017-09-18T02:37:28.338Z,80.26
2017-09-18T02:38:28.942Z,80.55
2017-09-18T02:39:29.651Z,80.36
2017-09-18T02:40:30.266Z,80.55
2017-09-18T02:41:30.875Z,80.45
2017-09-18T02:42:31.503Z,80.55
2017-09-18T02:43:32.141Z,80.36
2017-09-18T02:44:32.849Z,80.07
2017-09-18T02:45:33.454Z,80.36
2017-09-18T02:46:34.067Z,80.55
2017-09-18T02:47:34.673Z,80.07
2017-09-18T02:48:35.278Z,80.36
2017-09-18T02:49:35.991Z,80.11
2017-09-18T02:50:36.629Z,80.07
2017-09-18T02:51:37.237Z,80.40
2017-09-18T02:52:37.849Z,80.26
2017-09-18T02:53:38.453Z,80.26
2017-09-18T02:54:39.162Z,80.40
2017-09-18T02:55:39.769Z,80.17
2017-09-18T02:56:40.406Z,79.88
2017-09-18T02:57:41.014Z,79.93
2017-09-18T02:58:41.651Z,79.74
2017-09-18T02:59:42.389Z,79.93
2017-09-18T03:00:43.034Z,79.45
2017-09-18T03:01:43.637Z,79.83
2017-09-18T03:02:44.243Z,79.98
2017-09-18T03:03:44.849Z,79.83
2017-09-18T03:04:45.558Z,79.88
2017-09-18T03:05:46.164Z,80.02
2017-09-18T03:06:46.776Z,79.88
2017-09-18T03:07:47.413Z,79.98
2017-09-18T03:08:48.021Z,79.79
2017-09-18T03:09:48.732Z,79.74
2017-09-18T03:10:49.338Z,79.26
2017-09-18T03:11:49.983Z,79.36
2017-09-18T03:12:50.590Z,79.60
2017-09-18T03:13:51.196Z,79.55
2017-09-18T03:14:51.903Z,79.45
2017-09-18T03:15:52.510Z,79.60
2017-09-18T03:16:53.118Z,79.32
2017-09-18T03:17:53.758Z,79.36
2017-09-18T03:18:54.365Z,79.69
2017-09-18T03:19:55.074Z,79.41
2017-09-18T03:20:55.681Z,79.32
2017-09-18T03:21:56.287Z,79.50
2017-09-18T03:22:56.893Z,79.41
2017-09-18T03:23:57.502Z,79.32
2017-09-18T03:24:58.218Z,79.32
2017-09-18T03:25:58.819Z,79.41
2017-09-18T03:26:59.458Z,79.36
2017-09-18T03:28:00.064Z,79.32
2017-09-18T03:29:00.672Z,79.32
2017-09-18T03:30:01.377Z,79.41
2017-09-18T03:31:01.985Z,79.60
2017-09-18T03:32:02.596Z,79.50
2017-09-18T03:33:03.203Z,79.88
2017-09-18T03:34:03.810Z,79.69
2017-09-18T03:35:04.544Z,79.60
2017-09-18T03:36:05.151Z,79.60
2017-09-18T03:37:05.765Z,79.60
2017-09-18T03:38:06.371Z,79.60
2017-09-18T03:39:06.978Z,79.79
2017-09-18T03:40:07.683Z,79.98
2017-09-18T03:41:08.290Z,80.07
2017-09-18T03:42:08.903Z,79.79
2017-09-18T03:43:09.508Z,79.88
2017-09-18T03:44:10.114Z,79.69
2017-09-18T03:45:10.826Z,79.69
2017-09-18T03:46:11.430Z,79.69
2017-09-18T03:47:12.039Z,79.69
2017-09-18T03:48:12.644Z,79.88
2017-09-18T03:49:13.293Z,79.88
2017-09-18T03:50:13.992Z,80.26
2017-09-18T03:51:14.602Z,79.88
2017-09-18T03:52:15.205Z,79.79
2017-09-18T03:53:15.812Z,79.98
2017-09-18T03:54:16.419Z,79.98
2017-09-18T03:55:17.126Z,79.79
2017-09-18T03:56:17.737Z,79.79
2017-09-18T03:57:18.342Z,79.88
2017-09-18T03:58:18.948Z,79.79
2017-09-18T03:59:19.587Z,79.88
2017-09-18T04:00:20.296Z,79.79
2017-09-18T04:01:20.904Z,79.64
2017-09-18T04:02:21.512Z,79.32
2017-09-18T04:03:22.119Z,79.36
2017-09-18T04:04:22.726Z,79.41
2017-09-18T04:05:23.433Z,79.32
2017-09-18T04:06:24.048Z,79.50
2017-09-18T04:07:24.692Z,79.36
2017-09-18T04:08:25.302Z,79.41
2017-09-18T04:09:25.907Z,79.32
2017-09-18T04:10:26.645Z,79.36
2017-09-18T04:11:27.251Z,79.26
2017-09-18T04:12:27.890Z,79.26
2017-09-18T04:13:28.497Z,79.36
2017-09-18T04:14:29.106Z,79.45
2017-09-18T04:15:29.820Z,79.83
2017-09-18T04:16:30.424Z,79.17
2017-09-18T04:17:31.031Z,79.36
2017-09-18T04:18:31.639Z,79.36
2017-09-18T04:19:32.245Z,79.17
2017-09-18T04:20:32.951Z,79.07
2017-09-18T04:21:33.591Z,79.36
2017-09-18T04:22:34.199Z,79.36
2017-09-18T04:23:34.805Z,79.26
2017-09-18T04:24:35.412Z,79.07
2017-09-18T04:25:36.120Z,78.98
2017-09-18T04:26:36.728Z,79.03
2017-09-18T04:27:37.336Z,78.69
2017-09-18T04:28:37.945Z,79.07
2017-09-18T04:29:38.588Z,79.22
2017-09-18T04:30:39.293Z,78.75
2017-09-18T04:31:39.900Z,78.75
2017-09-18T04:32:40.511Z,79.17
2017-09-18T04:33:41.118Z,79.22
2017-09-18T04:34:41.725Z,79.13
2017-09-18T04:35:42.436Z,79.32
2017-09-18T04:36:43.040Z,79.41
2017-09-18T04:37:43.646Z,79.22
2017-09-18T04:38:44.252Z,79.03
2017-09-18T04:39:44.862Z,79.03
2017-09-18T04:40:45.570Z,79.41
2017-09-18T04:41:46.208Z,79.03
2017-09-18T04:42:46.814Z,79.03
2017-09-18T04:43:47.422Z,79.41
2017-09-18T04:44:48.027Z,79.79
2017-09-18T04:45:48.733Z,79.60
2017-09-18T04:46:49.340Z,79.32
2017-09-18T04:47:49.946Z,79.41
2017-09-18T04:48:50.584Z,79.32
2017-09-18T04:49:51.193Z,79.41
2017-09-18T04:50:51.904Z,79.32
2017-09-18T04:51:52.508Z,79.22
2017-09-18T04:52:53.116Z,79.41
2017-09-18T04:53:53.724Z,79.32
2017-09-18T04:54:54.335Z,79.32
2017-09-18T04:55:55.041Z,79.41
2017-09-18T04:56:55.650Z,79.41
2017-09-18T04:57:56.256Z,79.50
2017-09-18T04:58:56.866Z,79.41
2017-09-18T04:59:57.476Z,79.41
2017-09-18T05:00:58.178Z,79.22
2017-09-18T05:01:58.784Z,79.32
2017-09-18T05:02:59.397Z,79.60
2017-09-18T05:04:00.004Z,79.98
2017-09-18T05:05:00.642Z,79.50
2017-09-18T05:06:01.350Z,79.79
2017-09-18T05:07:01.962Z,79.98
2017-09-18T05:08:02.565Z,79.50
2017-09-18T05:09:03.172Z,79.98
2017-09-18T05:10:03.785Z,79.79
2017-09-18T05:11:04.491Z,79.88
2017-09-18T05:12:05.097Z,79.98
2017-09-18T05:13:05.703Z,80.17
2017-09-18T05:14:06.309Z,80.17
2017-09-18T05:15:06.922Z,79.79
2017-09-18T05:16:07.626Z,79.69
2017-09-18T05:17:08.233Z,79.98
2017-09-18T05:18:08.840Z,80.55
2017-09-18T05:19:09.446Z,80.64
2017-09-18T05:20:10.053Z,80.36
2017-09-18T05:21:10.796Z,80.45
2017-09-18T05:22:11.407Z,80.36
2017-09-18T05:23:12.021Z,80.45
2017-09-18T05:24:12.622Z,80.55
2017-09-18T05:25:13.234Z,80.45
2017-09-18T05:26:13.946Z,80.36
2017-09-18T05:27:14.550Z,80.26
2017-09-18T05:28:15.163Z,80.36
2017-09-18T05:29:15.767Z,80.17
2017-09-18T05:30:16.376Z,80.26
2017-09-18T05:31:17.084Z,80.36
2017-09-18T05:32:17.699Z,79.98
2017-09-18T05:33:18.303Z,80.45
2017-09-18T05:34:18.911Z,80.55
2017-09-18T05:35:19.521Z,80.26
2017-09-18T05:36:20.227Z,80.26
2017-09-18T05:37:20.841Z,80.07
2017-09-18T05:38:21.447Z,80.36
2017-09-18T05:39:22.061Z,80.45
2017-09-18T05:40:22.667Z,80.45
2017-09-18T05:41:23.372Z,80.26
2017-09-18T05:42:23.984Z,80.26
2017-09-18T05:43:24.591Z,80.26
2017-09-18T05:44:25.200Z,80.26
2017-09-18T05:45:25.839Z,80.45
2017-09-18T05:46:26.549Z,80.64
2017-09-18T05:47:27.155Z,80.55
2017-09-18T05:48:27.768Z,80.55
2017-09-18T05:49:28.374Z,80.64
2017-09-18T05:50:28.980Z,80.36
2017-09-18T05:51:29.687Z,80.36
2017-09-18T05:52:30.295Z,80.55
2017-09-18T05:53:30.902Z,80.17
2017-09-18T05:54:31.518Z,80.17
2017-09-18T05:55:32.163Z,80.45
2017-09-18T05:56:32.866Z,80.17
2017-09-18T05:57:33.483Z,80.74
2017-09-18T05:58:34.088Z,81.02
2017-09-18T05:59:34.723Z,80.55
2017-09-18T06:00:35.364Z,80.64
2017-09-18T06:01:36.070Z,80.26
2017-09-18T06:02:36.679Z,80.45
2017-09-18T06:03:37.286Z,80.07
2017-09-18T06:04:37.894Z,80.36
2017-09-18T06:05:38.501Z,80.36
2017-09-18T06:06:39.214Z,80.93
2017-09-18T06:07:39.823Z,80.93
2017-09-18T06:08:40.460Z,80.74
2017-09-18T06:09:41.066Z,80.55
2017-09-18T06:10:41.680Z,80.83
2017-09-18T06:11:42.387Z,81.02
2017-09-18T06:12:43.001Z,81.12
2017-09-18T06:13:43.604Z,80.36
2017-09-18T06:14:44.212Z,81.12
2017-09-18T06:15:44.826Z,80.83
2017-09-18T06:16:45.532Z,80.74
2017-09-18T06:17:46.140Z,80.55
2017-09-18T06:18:46.781Z,80.55
2017-09-18T06:19:47.388Z,80.07
2017-09-18T06:20:48.027Z,80.26
2017-09-18T06:21:48.734Z,80.17
2017-09-18T06:22:49.374Z,80.36
2017-09-18T06:23:49.986Z,80.40
2017-09-18T06:24:50.597Z,80.26
2017-09-18T06:25:51.240Z,80.64
2017-09-18T06:26:51.945Z,80.30
2017-09-18T06:27:52.559Z,80.36
2017-09-18T06:28:53.163Z,80.26
2017-09-18T06:29:53.803Z,79.98
2017-09-18T06:30:54.410Z,79.69
2017-09-18T06:31:55.117Z,79.60
2017-09-18T06:32:55.758Z,79.83
2017-09-18T06:33:56.373Z,79.64
2017-09-18T06:34:56.978Z,79.36
2017-09-18T06:35:57.585Z,79.55
2017-09-18T06:36:58.298Z,79.36
2017-09-18T06:37:58.904Z,79.45
2017-09-18T06:38:59.511Z,79.45
2017-09-18T06:40:00.151Z,79.45
2017-09-18T06:41:00.730Z,79.55
2017-09-18T06:42:01.437Z,79.55
2017-09-18T06:43:02.050Z,79.36
2017-09-18T06:44:02.658Z,79.45
2017-09-18T06:45:03.270Z,79.74
2017-09-18T06:46:03.885Z,79.55
2017-09-18T06:47:04.598Z,79.83
2017-09-18T06:48:05.204Z,79.64
2017-09-18T06:49:05.819Z,79.26
2017-09-18T06:50:06.429Z,79.45
2017-09-18T06:51:07.038Z,79.74
2017-09-18T06:52:07.753Z,79.83
2017-09-18T06:53:08.360Z,79.45
2017-09-18T06:54:08.971Z,79.26
2017-09-18T06:55:09.580Z,79.07
2017-09-18T06:56:10.191Z,79.36
2017-09-18T06:57:10.901Z,79.36
2017-09-18T06:58:11.513Z,79.87
2017-09-18T06:59:12.123Z,79.36
2017-09-18T07:00:12.734Z,78.98
2017-09-18T07:01:13.380Z,79.49
2017-09-18T07:02:14.090Z,79.49
2017-09-18T07:03:14.701Z,79.36
2017-09-18T07:04:15.315Z,79.49
2017-09-18T07:05:15.923Z,79.49
2017-09-18T07:06:16.538Z,79.39
2017-09-18T07:07:17.249Z,79.77
2017-09-18T07:08:17.859Z,79.68
2017-09-18T07:09:18.474Z,79.49
2017-09-18T07:10:19.089Z,79.77
2017-09-18T07:11:19.696Z,79.39
2017-09-18T07:12:20.407Z,79.68
2017-09-18T07:13:21.049Z,79.77
2017-09-18T07:14:21.662Z,79.68
2017-09-18T07:15:22.275Z,79.39
2017-09-18T07:16:22.889Z,79.49
2017-09-18T07:17:23.595Z,80.06
2017-09-18T07:18:24.208Z,80.25
2017-09-18T07:19:24.824Z,80.25
2017-09-18T07:20:25.437Z,80.34
2017-09-18T07:21:26.087Z,80.15
2017-09-18T07:22:26.825Z,79.77
2017-09-18T07:23:27.444Z,80.25
2017-09-18T07:24:28.052Z,80.44
2017-09-18T07:25:28.661Z,80.44
2017-09-18T07:26:29.271Z,80.44
2017-09-18T07:27:29.986Z,80.53
2017-09-18T07:28:30.627Z,80.63
2017-09-18T07:29:31.239Z,80.53
2017-09-18T07:30:31.848Z,80.44
2017-09-18T07:31:32.459Z,80.57
2017-09-18T07:32:33.171Z,80.48
2017-09-18T07:33:33.782Z,80.48
2017-09-18T07:34:34.398Z,80.86
2017-09-18T07:35:35.007Z,80.10
2017-09-18T07:36:35.621Z,79.96
2017-09-18T07:37:36.231Z,79.87
2017-09-18T07:38:36.841Z,80.06
2017-09-18T07:39:37.451Z,80.15
2017-09-18T07:40:38.069Z,80.34
2017-09-18T07:41:38.778Z,80.53
2017-09-18T07:42:39.389Z,80.72
2017-09-18T07:43:40.004Z,81.10
2017-09-18T07:44:40.613Z,81.01
2017-09-18T07:45:41.224Z,80.91
2017-09-18T07:46:41.941Z,80.82
2017-09-18T07:47:42.556Z,80.72
2017-09-18T07:48:43.163Z,80.95
2017-09-18T07:49:43.780Z,80.86
2017-09-18T07:50:44.387Z,81.24
2017-09-18T07:51:45.098Z,80.95
2017-09-18T07:52:45.709Z,81.05
2017-09-18T07:53:46.324Z,80.95
2017-09-18T07:54:46.932Z,80.86
2017-09-18T07:55:47.544Z,80.86
2017-09-18T07:56:48.260Z,80.67
2017-09-18T07:57:48.872Z,80.44
2017-09-18T07:58:49.480Z,80.91
2017-09-18T07:59:50.093Z,80.15
2017-09-18T08:00:50.708Z,81.01
2017-09-18T08:01:51.417Z,81.20
2017-09-18T08:02:52.030Z,80.91
2017-09-18T08:03:52.639Z,81.29
2017-09-18T08:04:53.258Z,81.24
2017-09-18T08:05:53.866Z,81.29
2017-09-18T08:06:54.577Z,81.33
2017-09-18T08:07:55.188Z,81.24
2017-09-18T08:08:55.799Z,81.62
2017-09-18T08:09:56.442Z,81.62
2017-09-18T08:10:57.057Z,81.33
2017-09-18T08:11:57.767Z,81.52
2017-09-18T08:12:58.381Z,81.99
2017-09-18T08:13:59.021Z,81.43
2017-09-18T08:14:59.638Z,81.52
2017-09-18T08:16:00.247Z,81.66
2017-09-18T08:17:00.959Z,80.99
2017-09-18T08:18:01.568Z,81.09
2017-09-18T08:19:02.181Z,80.14
2017-09-18T08:20:02.793Z,80.80
2017-09-18T08:21:03.410Z,80.71
2017-09-18T08:22:04.119Z,80.90
2017-09-18T08:23:04.740Z,80.33
2017-09-18T08:24:05.356Z,79.85
2017-09-18T08:25:05.964Z,79.66
2017-09-18T08:26:06.577Z,79.57
2017-09-18T08:27:07.284Z,80.33
2017-09-18T08:28:07.896Z,80.62
2017-09-18T08:29:08.516Z,80.71
2017-09-18T08:30:09.118Z,80.52
2017-09-18T08:31:09.730Z,80.33
2017-09-18T08:32:10.449Z,80.52
2017-09-18T08:33:11.058Z,80.52
2017-09-18T08:34:11.700Z,80.99
2017-09-18T08:35:12.314Z,80.99
2017-09-18T08:36:12.923Z,80.99
2017-09-18T08:37:13.636Z,80.90
2017-09-18T08:38:14.246Z,80.90
2017-09-18T08:39:14.860Z,80.90
2017-09-18T08:40:15.475Z,80.99
2017-09-18T08:41:16.120Z,80.52
2017-09-18T08:42:16.831Z,80.43
2017-09-18T08:43:17.444Z,80.33
2017-09-18T08:44:18.059Z,80.43
2017-09-18T08:45:18.710Z,80.43
2017-09-18T08:46:19.318Z,80.71
2017-09-18T08:47:20.041Z,80.14
2017-09-18T08:48:20.644Z,80.90
2017-09-18T08:49:21.262Z,81.04
2017-09-18T08:50:21.904Z,80.94
2017-09-18T08:51:22.516Z,80.65
2017-09-18T08:52:23.258Z,80.84
2017-09-18T08:53:23.876Z,81.04
2017-09-18T08:54:24.519Z,81.04
2017-09-18T08:55:25.137Z,81.13
2017-09-18T08:56:25.745Z,80.46
2017-09-18T08:57:26.457Z,80.27
2017-09-18T08:58:27.076Z,79.90
2017-09-18T08:59:27.688Z,80.27
2017-09-18T09:00:28.303Z,79.80
2017-09-18T09:01:28.911Z,79.57
2017-09-18T09:02:29.627Z,79.47
2017-09-18T09:03:30.234Z,79.38
2017-09-18T09:04:30.852Z,79.47
2017-09-18T09:05:31.466Z,79.47
2017-09-18T09:06:32.078Z,79.57
2017-09-18T09:07:32.819Z,79.10
2017-09-18T09:08:33.433Z,79.66
2017-09-18T09:09:34.078Z,79.57
2017-09-18T09:10:34.686Z,78.81
2017-09-18T09:11:35.297Z,79.38
2017-09-18T09:12:36.015Z,79.38
2017-09-18T09:13:36.625Z,79.66
2017-09-18T09:14:37.238Z,79.28
2017-09-18T09:15:37.847Z,79.85
2017-09-18T09:16:38.461Z,79.57
2017-09-18T09:17:39.173Z,79.71
2017-09-18T09:18:39.785Z,79.71
2017-09-18T09:19:40.404Z,79.99
2017-09-18T09:20:41.013Z,80.46
2017-09-18T09:21:41.625Z,79.14
2017-09-18T09:22:42.336Z,78.95
2017-09-18T09:23:42.950Z,78.85
2017-09-18T09:24:43.561Z,78.47
2017-09-18T09:25:44.173Z,78.95
2017-09-18T09:26:44.790Z,79.23
2017-09-18T09:27:45.541Z,78.75
2017-09-18T09:28:46.147Z,78.70
2017-09-18T09:29:46.761Z,78.42
2017-09-18T09:30:47.403Z,78.51
2017-09-18T09:31:48.026Z,77.47
2017-09-18T09:32:48.736Z,77.09
2017-09-18T09:33:49.347Z,77.37
2017-09-18T09:34:49.960Z,76.48
2017-09-18T09:35:50.608Z,76.29
2017-09-18T09:36:51.247Z,77.43
2017-09-18T09:37:51.959Z,78.66
2017-09-18T09:38:52.573Z,79.08
2017-09-18T09:39:53.190Z,78.89
2017-09-18T09:40:53.801Z,78.61
2017-09-18T09:41:54.419Z,78.61
2017-09-18T09:42:55.035Z,78.80
2017-09-18T09:43:55.651Z,78.80
2017-09-18T09:44:56.267Z,79.08
2017-09-18T09:45:56.882Z,78.61
2017-09-18T09:46:57.492Z,78.13
2017-09-18T09:47:58.211Z,78.03
2017-09-18T09:48:58.827Z,78.70
2017-09-18T09:49:59.439Z,78.89
2017-09-18T09:51:00.052Z,77.75
2017-09-18T09:52:00.665Z,78.45
2017-09-18T09:53:01.377Z,78.45
2017-09-18T09:54:01.997Z,78.27
2017-09-18T09:55:02.609Z,77.51
2017-09-18T09:56:03.223Z,77.89
2017-09-18T09:57:03.837Z,78.11
2017-09-18T09:58:04.557Z,78.11
2017-09-18T09:59:05.166Z,78.11
2017-09-18T10:00:05.779Z,77.73
2017-09-18T10:01:06.424Z,77.36
2017-09-18T10:02:07.038Z,77.01
2017-09-18T10:03:07.752Z,76.54
2017-09-18T10:04:08.371Z,75.02
2017-09-18T10:05:08.983Z,74.16
2017-09-18T10:06:09.604Z,75.11
2017-09-18T10:07:10.214Z,75.02
2017-09-18T10:08:10.959Z,75.68
2017-09-18T10:09:11.572Z,75.11
2017-09-18T10:10:12.194Z,75.21
2017-09-18T10:11:12.813Z,74.92
2017-09-18T10:12:13.428Z,74.07
2017-09-18T10:13:14.149Z,74.07
2017-09-18T10:14:14.792Z,74.44
2017-09-18T10:15:15.439Z,73.88
2017-09-18T10:16:16.053Z,74.16
2017-09-18T10:17:16.672Z,74.54
2017-09-18T10:18:17.384Z,73.40
2017-09-18T10:19:18.000Z,72.26
2017-09-18T10:20:18.619Z,73.21
2017-09-18T10:21:19.263Z,73.02
2017-09-18T10:22:19.881Z,72.74
2017-09-18T10:23:20.629Z,72.32
2017-09-18T10:24:21.240Z,71.75
2017-09-18T10:25:21.856Z,72.99
2017-09-18T10:26:22.469Z,74.26
2017-09-18T10:27:23.083Z,75.11
2017-09-18T10:28:23.799Z,74.16
2017-09-18T10:29:24.419Z,73.69
2017-09-18T10:30:25.030Z,72.83
2017-09-18T10:31:25.651Z,71.02
2017-09-18T10:32:26.269Z,72.07
2017-09-18T10:33:26.982Z,73.11
2017-09-18T10:34:27.597Z,73.59
2017-09-18T10:35:28.212Z,72.64
2017-09-18T10:36:28.828Z,72.07
2017-09-18T10:37:29.443Z,71.72
2017-09-18T10:38:30.163Z,73.34
2017-09-18T10:39:30.777Z,73.44
2017-09-18T10:40:31.424Z,72.96
2017-09-18T10:41:32.042Z,72.42
2017-09-18T10:42:32.657Z,72.71
2017-09-18T10:43:33.403Z,73.38
2017-09-18T10:44:34.026Z,72.75
2017-09-18T10:45:34.641Z,71.61
2017-09-18T10:46:35.258Z,71.03
2017-09-18T10:47:35.873Z,69.99
2017-09-18T10:48:36.626Z,69.79
2017-09-18T10:49:37.206Z,70.27
2017-09-18T10:50:37.822Z,70.56
2017-09-18T10:51:38.437Z,69.67
2017-09-18T10:52:39.057Z,69.67
2017-09-18T10:53:39.768Z,68.49
2017-09-18T10:54:40.383Z,68.77
2017-09-18T10:55:41.028Z,69.15
2017-09-18T10:56:41.643Z,69.60
2017-09-18T10:57:42.258Z,69.98
2017-09-18T10:58:42.978Z,69.79
2017-09-18T10:59:43.589Z,69.98
2017-09-18T11:00:44.204Z,70.10
2017-09-18T11:01:44.825Z,71.15
2017-09-18T11:02:45.438Z,71.63
2017-09-18T11:03:46.155Z,71.00
2017-09-18T11:04:46.770Z,70.33
2017-09-18T11:05:47.394Z,69.38
2017-09-18T11:06:48.042Z,68.71
2017-09-18T11:07:48.664Z,68.52
2017-09-18T11:08:49.377Z,68.33
2017-09-18T11:09:49.998Z,68.46
2017-09-18T11:10:50.614Z,68.56
2017-09-18T11:11:51.235Z,67.51
2017-09-18T11:12:51.884Z,66.43
2017-09-18T11:13:52.606Z,67.32
2017-09-18T11:14:53.222Z,67.32
2017-09-18T11:15:53.838Z,67.51
2017-09-18T11:16:54.456Z,67.51
2017-09-18T11:17:55.079Z,67.99
2017-09-18T11:18:55.794Z,67.89
2017-09-18T11:19:56.411Z,66.94
2017-09-18T11:20:57.035Z,66.66
2017-09-18T11:21:57.649Z,66.88
2017-09-18T11:22:58.270Z,66.78
2017-09-18T11:23:58.989Z,66.59
2017-09-18T11:24:59.606Z,66.69
2017-09-18T11:26:00.225Z,66.02
2017-09-18T11:27:00.844Z,65.83
2017-09-18T11:28:01.471Z,65.07
2017-09-18T11:29:02.181Z,63.92
2017-09-18T11:30:02.804Z,65.07
2017-09-18T11:31:03.451Z,65.55
2017-09-18T11:32:04.068Z,64.87
2017-09-18T11:33:04.693Z,64.59
2017-09-18T11:34:05.409Z,65.16
2017-09-18T11:35:06.026Z,65.07
2017-09-18T11:36:06.644Z,62.59
2017-09-18T11:37:07.266Z,62.02
2017-09-18T11:38:07.881Z,62.97
2017-09-18T11:39:08.598Z,63.92
2017-09-18T11:40:09.217Z,64.02
2017-09-18T11:41:09.837Z,62.40
2017-09-18T11:42:10.451Z,61.45
2017-09-18T11:43:11.071Z,61.35
2017-09-18T11:44:11.788Z,61.25
2017-09-18T11:45:12.444Z,62.40
2017-09-18T11:46:13.100Z,62.68
2017-09-18T11:47:13.716Z,62.91
2017-09-18T11:48:14.337Z,63.57
2017-09-18T11:49:15.090Z,62.72
2017-09-18T11:50:15.706Z,60.81
2017-09-18T11:51:16.357Z,57.95
2017-09-18T11:52:16.975Z,58.62
2017-09-18T11:53:17.594Z,59.92
2017-09-18T11:54:18.311Z,59.95
2017-09-18T11:55:18.928Z,58.97
2017-09-18T11:56:19.563Z,59.74
2017-09-18T11:57:20.184Z,60.49
2017-09-18T11:58:20.801Z,60.59
2017-09-18T11:59:21.549Z,60.81
2017-09-18T12:00:22.166Z,60.72
2017-09-18T12:01:22.787Z,60.52
2017-09-18T12:02:23.410Z,60.65
2017-09-18T12:03:24.025Z,60.94
2017-09-18T12:04:24.745Z,60.75
2017-09-18T12:05:25.364Z,59.89
2017-09-18T12:06:25.981Z,59.70
2017-09-18T12:07:26.600Z,59.79
2017-09-18T12:08:27.219Z,57.89
2017-09-18T12:09:27.943Z,57.89
2017-09-18T12:10:28.560Z,58.36
2017-09-18T12:11:29.178Z,58.94
2017-09-18T12:12:29.797Z,59.03
2017-09-18T12:13:30.415Z,58.01
2017-09-18T12:14:31.135Z,55.41
2017-09-18T12:15:31.788Z,55.21
2017-09-18T12:16:32.370Z,53.28
2017-09-18T12:17:32.994Z,53.47
2017-09-18T12:18:33.612Z,55.35
2017-09-18T12:19:34.330Z,55.35
2017-09-18T12:20:34.953Z,56.49
2017-09-18T12:21:35.569Z,57.00
2017-09-18T12:22:36.186Z,57.28
2017-09-18T12:23:36.805Z,57.98
2017-09-18T12:24:37.571Z,56.17
2017-09-18T12:25:38.193Z,54.55
2017-09-18T12:26:38.815Z,54.45
2017-09-18T12:27:39.436Z,55.31
2017-09-18T12:28:40.051Z,53.88
2017-09-18T12:29:40.767Z,52.92
2017-09-18T12:30:41.418Z,52.55
2017-09-18T12:31:42.038Z,52.36
2017-09-18T12:32:42.693Z,51.66
2017-09-18T12:33:43.307Z,52.14
2017-09-18T12:34:44.030Z,52.52
2017-09-18T12:35:44.683Z,52.33
2017-09-18T12:36:45.305Z,51.95
2017-09-18T12:37:45.921Z,51.28
2017-09-18T12:38:46.540Z,51.09
2017-09-18T12:39:47.285Z,50.80
2017-09-18T12:40:47.880Z,49.56
2017-09-18T12:41:48.499Z,50.21
2017-09-18T12:42:49.117Z,51.16
2017-09-18T12:43:49.735Z,51.09
2017-09-18T12:44:50.453Z,51.85
2017-09-18T12:45:51.072Z,50.52
2017-09-18T12:46:51.695Z,49.18
2017-09-18T12:47:52.312Z,49.95
2017-09-18T12:48:52.935Z,50.99
2017-09-18T12:49:53.651Z,51.09
2017-09-18T12:50:54.270Z,50.13
2017-09-18T12:51:54.894Z,48.99
2017-09-18T12:52:55.513Z,48.80
2017-09-18T12:53:56.162Z,50.32
2017-09-18T12:54:56.920Z,51.09
2017-09-18T12:55:57.535Z,50.71
2017-09-18T12:56:58.153Z,50.42
2017-09-18T12:57:58.769Z,50.32
2017-09-18T12:58:59.390Z,49.08
2017-09-18T13:00:00.110Z,49.56
2017-09-18T13:01:00.729Z,49.40